Time;durP1;ratioP1;P1;durP2;ratioP2;P2;SDS_P1;SDS_P2;PMS_P1;PMS_P2;Temp;Humidity;BMP_temperature;BMP_pressure;BME280_temperature;BME280_humidity;BME280_pressure;Samples;Min_cycle;Max_cycle;Signal;HPM_P1;HPM_P2
2022/04/27 00:02:03;;;;;;;5.03;3.17;;;;;;;20.08;53.27;100999.00;5015399;28;20046;-70
2022/04/27 00:04:31;;;;;;;4.80;2.78;;;;;;;20.08;53.31;100999.00;5014343;28;20042;-71
2022/04/27 00:06:59;;;;;;;3.70;2.70;;;;;;;20.07;53.22;100997.31;5015130;28;20382;-71
2022/04/27 00:09:27;;;;;;;5.55;2.85;;;;;;;20.07;53.13;101002.69;5014335;28;20042;-71
2022/04/27 00:11:56;;;;;;;4.03;2.65;;;;;;;20.07;52.97;101002.69;5013449;28;20482;-71
2022/04/27 00:14:25;;;;;;;3.72;2.83;;;;;;;20.07;53.07;101005.38;5014369;28;20050;-71
2022/04/27 00:16:53;;;;;;;4.85;3.03;;;;;;;20.08;53.05;100998.16;5014793;28;20046;-71
2022/04/27 00:19:20;;;;;;;4.20;2.67;;;;;;;20.07;53.07;101001.84;5014431;28;20042;-71
2022/04/27 00:21:47;;;;;;;3.70;2.30;;;;;;;20.06;52.93;100998.31;5013932;28;20121;-71
2022/04/27 00:24:15;;;;;;;6.85;2.85;;;;;;;20.07;52.96;101000.00;5014070;28;20057;-71
2022/04/27 00:26:42;;;;;;;3.47;3.03;;;;;;;20.06;52.83;100998.31;5014875;28;20375;-71
2022/04/27 00:29:10;;;;;;;6.03;2.97;;;;;;;20.06;52.81;101006.38;5014508;28;20042;-71
2022/04/27 00:31:37;;;;;;;4.43;2.95;;;;;;;20.05;52.75;101004.63;5014699;28;20398;-71
2022/04/27 00:34:05;;;;;;;4.85;2.70;;;;;;;20.04;52.91;101000.25;5012707;28;20058;-71
2022/04/27 00:36:32;;;;;;;4.57;2.85;;;;;;;20.04;52.54;101008.31;5012697;28;20046;-71
2022/04/27 00:39:00;;;;;;;5.28;3.53;;;;;;;20.03;52.65;101003.94;5012917;28;20070;-70
2022/04/27 00:41:27;;;;;;;4.43;3.00;;;;;;;20.03;52.69;100998.56;5014593;28;20048;-71
2022/04/27 00:43:55;;;;;;;4.32;2.85;;;;;;;20.04;52.69;100997.56;5012494;28;20061;-71
2022/04/27 00:46:22;;;;;;;4.05;2.97;;;;;;;20.03;52.54;101001.25;5013639;28;20046;-71
2022/04/27 00:48:50;;;;;;;4.25;2.72;;;;;;;20.03;52.68;101003.94;5013650;28;20405;-71
2022/04/27 00:51:21;;;;;;;4.88;2.80;;;;;;;20.03;52.57;101003.09;5012128;28;20053;-71
2022/04/27 00:53:49;;;;;;;3.13;2.45;;;;;;;20.02;52.52;101006.78;5012928;28;20061;-71
2022/04/27 00:56:18;;;;;;;3.20;2.78;;;;;;;20.02;52.49;100999.56;5013484;28;20041;-71
2022/04/27 00:58:47;;;;;;;3.88;2.50;;;;;;;20.02;52.22;101013.00;5011750;28;20090;-71
2022/04/27 01:01:19;;;;;;;4.32;3.05;;;;;;;20.03;52.52;101022.75;5013039;28;20390;-71
2022/04/27 01:03:46;;;;;;;4.88;2.85;;;;;;;20.02;52.55;101017.53;5013470;28;20049;-71
2022/04/27 01:06:15;;;;;;;3.83;3.08;;;;;;;20.02;52.35;101017.53;4996741;28;20053;-71
2022/04/27 01:08:43;;;;;;;3.33;2.42;;;;;;;20.02;52.37;101020.22;5012032;28;20502;-70
2022/04/27 01:11:11;;;;;;;4.35;3.22;;;;;;;20.02;52.30;101018.38;5012805;28;20065;-71
2022/04/27 01:13:45;;;;;;;4.18;3.05;;;;;;;20.01;52.12;101024.69;5012214;28;20414;-71
2022/04/27 01:16:13;;;;;;;4.72;3.20;;;;;;;20.01;52.29;101024.69;5012454;28;20056;-71
2022/04/27 01:18:40;;;;;;;5.63;3.20;;;;;;;20.01;52.30;101022.00;5014234;28;20049;-71
2022/04/27 01:21:08;;;;;;;5.13;2.92;;;;;;;20.00;52.12;101031.06;5013363;28;20046;-71
2022/04/27 01:23:44;;;;;;;4.28;3.13;;;;;;;20.01;52.01;101027.38;5012431;28;20050;-71
2022/04/27 01:26:12;;;;;;;4.63;3.05;;;;;;;20.00;52.05;101036.44;5011876;28;20046;-71
2022/04/27 01:28:39;;;;;;;4.10;3.08;;;;;;;20.00;51.91;101039.97;5012164;28;20058;-71
2022/04/27 01:31:11;;;;;;;4.00;3.08;;;;;;;20.00;51.86;101036.44;5013033;28;20053;-71
2022/04/27 01:33:39;;;;;;;3.90;2.85;;;;;;;19.99;51.94;101043.66;5013354;28;20054;-71
2022/04/27 01:36:08;;;;;;;4.70;2.78;;;;;;;20.00;52.01;101036.44;5016726;28;20056;-71
2022/04/27 01:38:38;;;;;;;5.05;2.83;;;;;;;20.00;51.84;101044.50;5016331;28;20045;-71
2022/04/27 01:41:06;;;;;;;3.88;2.80;;;;;;;19.99;51.82;101046.34;5015992;28;20050;-71
2022/04/27 01:43:34;;;;;;;5.05;3.20;;;;;;;19.99;51.90;101045.50;5016174;28;20057;-70
2022/04/27 01:46:02;;;;;;;3.03;2.50;;;;;;;19.99;51.70;101040.97;5015851;28;20053;-71
2022/04/27 01:48:29;;;;;;;3.33;2.60;;;;;;;19.99;51.77;101045.50;5017816;28;20049;-70
2022/04/27 01:50:56;;;;;;;4.35;2.95;;;;;;;19.99;51.90;101049.03;5017815;28;20057;-71
2022/04/27 01:56:12;;;;;;;4.40;3.13;;;;;;;19.98;51.71;101039.28;5015915;28;20409;-71
2022/04/27 01:58:44;;;;;;;3.33;2.53;;;;;;;19.98;51.78;101039.28;5017461;28;20048;-71
2022/04/27 02:01:12;;;;;;;3.25;2.50;;;;;;;19.98;51.69;101050.03;5015322;28;20405;-71
2022/04/27 02:03:41;;;;;;;4.05;2.90;;;;;;;19.97;51.59;101060.88;5015747;28;20050;-71
2022/04/27 02:06:16;;;;;;;3.95;2.65;;;;;;;19.97;51.60;101059.06;5015516;28;20493;-71
2022/04/27 02:08:44;;;;;;;3.30;2.47;;;;;;;19.97;51.57;101052.81;5015450;28;20057;-71
2022/04/27 02:11:13;;;;;;;5.05;2.72;;;;;;;19.97;51.67;101055.50;4999581;28;20065;-70
2022/04/27 02:13:54;;;;;;;4.53;3.40;;;;;;;19.97;51.63;101050.13;5016069;28;20054;-71
2022/04/27 02:16:24;;;;;;;;;;;;;;;19.97;51.36;101055.50;5015619;28;20060;-71
2022/04/27 02:18:54;;;;;;;7.35;2.92;;;;;;;19.96;51.67;101057.34;5015504;28;19921;-71
2022/04/27 02:21:22;;;;;;;5.03;3.22;;;;;;;19.96;51.50;101060.03;5015349;28;20060;-71
2022/04/27 02:23:49;;;;;;;3.20;2.55;;;;;;;19.96;51.41;101068.09;5015261;28;20415;-71
2022/04/27 02:26:17;;;;;;;3.95;3.00;;;;;;;19.96;51.65;101064.56;5014861;28;20080;-71
2022/04/27 02:28:45;;;;;;;4.70;3.20;;;;;;;19.95;51.61;101066.41;5014653;28;20058;-71
2022/04/27 02:31:12;;;;;;;4.65;3.38;;;;;;;19.95;51.46;101071.78;5014923;28;20054;-71
2022/04/27 02:33:39;;;;;;;4.95;2.80;;;;;;;19.96;51.63;101075.31;5015389;28;20482;-71
2022/04/27 02:36:07;;;;;;;5.57;2.63;;;;;;;19.94;51.56;101072.75;5015367;28;20094;-71
2022/04/27 02:38:35;;;;;;;4.85;2.78;;;;;;;19.95;51.63;101078.97;5014779;28;20050;-71
2022/04/27 02:41:08;;;;;;;5.47;2.80;;;;;;;19.95;51.47;101076.28;5014984;28;20050;-71
2022/04/27 02:43:37;;;;;;;4.28;2.63;;;;;;;19.95;51.64;101077.16;5014275;28;20505;-71
2022/04/27 02:46:07;;;;;;;6.10;2.92;;;;;;;19.95;51.51;101090.59;5014584;28;20501;-71
2022/04/27 02:48:35;;;;;;;4.82;2.75;;;;;;;19.94;51.64;101083.50;5015178;28;20494;-71
2022/04/27 02:53:49;;;;;;;4.93;3.15;;;;;;;19.94;51.50;101088.03;5014423;28;20061;-71
2022/04/27 02:56:16;;;;;;;4.38;3.22;;;;;;;19.94;51.45;101082.66;5014070;28;20054;-71
2022/04/27 02:58:44;;;;;;;6.28;2.97;;;;;;;19.93;51.51;101084.50;5014347;28;20053;-71
2022/04/27 03:01:11;;;;;;;6.82;2.90;;;;;;;19.93;51.62;101081.81;5015545;28;20493;-71
2022/04/27 03:03:38;;;;;;;3.80;2.63;;;;;;;19.94;51.62;101080.81;5014171;28;20046;-71
2022/04/27 03:06:07;;;;;;;4.30;2.90;;;;;;;19.93;51.54;101078.25;5014024;28;20046;-71
2022/04/27 03:08:34;;;;;;;4.25;2.95;;;;;;;19.93;51.33;101087.19;5015494;28;20057;-71
2022/04/27 03:11:02;;;;;;;4.93;3.42;;;;;;;19.93;51.26;101092.56;5014108;28;20080;-71
2022/04/27 03:13:46;;;;;;;4.13;3.22;;;;;;;19.93;51.36;101092.56;5014758;28;20053;-71
2022/04/27 03:16:14;;;;;;;3.15;2.45;;;;;;;19.93;51.25;101089.00;5014541;28;20068;-71
2022/04/27 03:18:45;;;;;;;5.05;2.90;;;;;;;19.92;51.12;101096.22;5014399;28;20049;-71
2022/04/27 03:21:13;;;;;;;4.95;3.00;;;;;;;19.93;51.42;101097.06;5014657;28;20049;-71
2022/04/27 03:23:41;;;;;;;4.00;3.05;;;;;;;19.91;51.37;101105.25;5014171;28;20076;-71
2022/04/27 03:26:10;;;;;;;4.35;3.10;;;;;;;19.92;51.32;101101.59;5014022;28;20053;-71
2022/04/27 03:28:37;;;;;;;3.85;2.90;;;;;;;19.91;51.27;101112.47;5014438;28;20053;-71
2022/04/27 03:31:05;;;;;;;3.45;2.65;;;;;;;19.91;51.11;101110.63;5014443;28;20054;-71
2022/04/27 03:33:39;;;;;;;6.07;2.70;;;;;;;19.91;51.28;101113.31;5013698;28;20521;-71
2022/04/27 03:36:11;;;;;;;4.10;3.00;;;;;;;19.91;51.28;101107.94;5014925;28;20034;-71
2022/04/27 03:38:39;;;;;;;;;;;;;;;19.92;51.28;101119.53;5013766;28;20050;-71
2022/04/27 03:41:07;;;;;;;4.68;2.60;;;;;;;19.92;51.35;101119.53;5013725;28;19925;-71
2022/04/27 03:43:37;;;;;;;3.75;2.53;;;;;;;19.91;51.29;101117.84;5013773;28;20077;-71
2022/04/27 03:46:05;;;;;;;3.58;3.03;;;;;;;19.91;51.37;101121.38;5029604;28;20049;-71
2022/04/27 03:48:37;;;;;;;3.27;2.60;;;;;;;19.92;51.49;101127.59;5014086;28;20081;-71
2022/04/27 03:51:04;;;;;;;3.83;2.85;;;;;;;19.90;51.48;101133.13;5013316;28;20655;-71
2022/04/27 03:53:32;;;;;;;4.82;3.00;;;;;;;19.90;51.31;101130.44;5013103;28;20413;-71
2022/04/27 03:55:59;;;;;;;5.72;2.90;;;;;;;19.90;51.56;101129.56;5014019;28;20057;-71
2022/04/27 03:58:27;;;;;;;4.60;2.85;;;;;;;19.90;51.53;101132.28;4996233;28;20054;-71
2022/04/27 04:00:54;;;;;;;3.40;2.75;;;;;;;19.89;51.48;101136.78;4996963;28;20050;-71
2022/04/27 04:03:22;;;;;;;4.35;2.47;;;;;;;19.89;51.51;101131.41;5013075;28;20053;-71
2022/04/27 04:05:53;;;;;;;4.75;2.50;;;;;;;19.89;51.41;101139.47;5013353;28;20057;-70
2022/04/27 04:08:22;;;;;;;4.00;2.60;;;;;;;19.90;51.51;101141.19;5013239;28;20050;-71
2022/04/27 04:10:51;;;;;;;4.60;2.83;;;;;;;19.89;51.52;101144.84;5012840;28;20045;-71
2022/04/27 04:13:20;;;;;;;3.70;2.65;;;;;;;19.89;51.47;101146.66;5013735;28;20080;-71
2022/04/27 04:15:50;;;;;;;5.78;2.53;;;;;;;19.89;51.56;101152.91;5015045;28;20069;-71
2022/04/27 04:18:29;;;;;;;3.78;2.55;;;;;;;19.88;51.43;101159.25;5021374;28;20050;-71
2022/04/27 04:21:19;;;;;;;4.75;2.88;;;;;;;19.88;51.53;101153.88;5013443;28;20057;-70
2022/04/27 04:24:09;;;;;;;4.45;2.72;;;;;;;19.88;51.32;101155.72;5016572;28;20405;-71
2022/04/27 04:29:31;;;;;;;5.53;3.03;;;;;;;19.87;51.55;101151.31;5012667;28;20054;-71
2022/04/27 04:31:59;;;;;;;4.88;3.00;;;;;;;19.87;51.36;101159.38;5013551;28;20073;-71
2022/04/27 04:34:36;;;;;;;5.05;3.10;;;;;;;19.87;51.32;101162.91;5012935;28;20061;-71
2022/04/27 04:37:06;;;;;;;6.28;2.75;;;;;;;19.86;51.42;101163.91;5012094;28;20052;-71
2022/04/27 04:39:33;;;;;;;3.80;2.85;;;;;;;19.86;51.27;101158.53;5012718;28;20147;-71
2022/04/27 04:42:01;;;;;;;4.32;2.90;;;;;;;19.86;51.22;101155.00;5012507;28;20046;-71
2022/04/27 04:44:30;;;;;;;3.55;2.85;;;;;;;19.86;51.40;101160.38;5012540;28;20391;-71
2022/04/27 04:47:14;;;;;;;3.85;2.78;;;;;;;19.86;51.29;101173.81;5028387;28;20049;-70
2022/04/27 04:50:12;;;;;;;4.90;3.40;;;;;;;19.85;51.28;101170.28;5031521;28;20053;-71
2022/04/27 04:53:12;;;;;;;4.07;3.00;;;;;;;19.84;51.24;101179.28;4934547;29;20062;-70
2022/04/27 04:55:54;;;;;;;6.50;3.30;;;;;;;19.86;51.14;101181.88;4934008;29;20059;-70
2022/04/27 04:58:45;;;;;;;3.55;2.60;;;;;;;19.85;51.08;101180.13;4926315;29;20066;-71
2022/04/27 05:01:24;;;;;;;5.35;3.20;;;;;;;19.84;51.09;101187.34;4918235;29;20451;-71
2022/04/27 05:04:04;;;;;;;4.07;2.63;;;;;;;19.85;50.94;101185.50;4918528;29;20062;-70
2022/04/27 05:07:08;;;;;;;4.72;2.78;;;;;;;19.83;50.95;101185.66;4915464;29;20262;-71
2022/04/27 05:09:46;;;;;;;4.20;2.25;;;;;;;19.84;50.98;101186.50;4914796;29;20169;-70
2022/04/27 05:12:43;;;;;;;5.80;3.40;;;;;;;19.84;50.99;101183.81;4915637;29;20052;-70
2022/04/27 05:15:25;;;;;;;4.53;2.95;;;;;;;19.84;50.95;101183.81;4918100;29;20155;-71
2022/04/27 05:17:59;;;;;;;3.35;2.53;;;;;;;19.83;51.07;101185.66;4915160;29;20048;-70
2022/04/27 05:20:49;;;;;;;4.03;3.08;;;;;;;19.83;50.89;101188.34;4915303;29;20075;-71
2022/04/27 05:23:35;;;;;;;3.78;2.55;;;;;;;19.82;51.04;101197.38;4914925;29;20168;-71
2022/04/27 05:26:17;;;;;;;5.43;3.30;;;;;;;19.82;50.59;101200.06;4903801;29;20168;-71
2022/04/27 05:31:55;;;;;;;4.35;3.17;;;;;;;19.81;50.70;101209.13;4917302;29;20071;-71
2022/04/27 05:34:49;;;;;;;3.78;2.80;;;;;;;19.83;51.03;101211.66;4895941;29;20067;-71
2022/04/27 05:37:45;;;;;;;4.40;2.67;;;;;;;19.83;50.98;101208.97;4840387;29;20162;-71
2022/04/27 05:40:49;;;;;;;3.97;3.03;;;;;;;19.81;50.82;101209.13;4851485;29;20061;-71
2022/04/27 05:43:42;;;;;;;4.30;3.08;;;;;;;19.81;51.05;101214.50;4859279;29;20058;-71
2022/04/27 05:46:29;;;;;;;6.65;2.60;;;;;;;19.81;50.86;101216.28;4859999;29;20062;-71
2022/04/27 05:49:16;;;;;;;2.95;2.42;;;;;;;19.80;50.83;101222.66;4846993;29;20065;-71
2022/04/27 05:52:09;;;;;;;3.38;2.58;;;;;;;19.81;50.62;101227.94;4824913;29;20054;-71
2022/04/27 05:54:46;;;;;;;3.17;2.50;;;;;;;19.81;50.76;101229.72;4840717;29;20058;-71
2022/04/27 05:57:45;;;;;;;2.90;2.30;;;;;;;19.80;50.85;101230.72;4859088;29;20076;-71
2022/04/27 06:00:52;;;;;;;5.60;2.88;;;;;;;19.80;50.91;101231.56;4843287;29;20057;-71
2022/04/27 06:03:44;;;;;;;3.25;2.72;;;;;;;19.81;50.77;101238.66;4843153;29;20056;-71
2022/04/27 06:06:27;;;;;;;2.88;2.28;;;;;;;19.81;50.74;101235.09;4843104;29;20057;-71
2022/04/27 06:09:10;;;;;;;3.30;2.47;;;;;;;19.81;50.81;101235.09;4858399;29;20065;-71
2022/04/27 06:12:19;;;;;;;4.70;2.63;;;;;;;19.81;50.72;101237.78;4851393;29;20075;-71
2022/04/27 06:15:11;;;;;;;3.22;2.45;;;;;;;19.81;50.67;101235.09;4892960;29;20060;-71
2022/04/27 06:17:39;;;;;;;4.85;2.55;;;;;;;19.80;50.73;101231.56;4879753;29;20052;-71
2022/04/27 06:20:09;;;;;;;4.07;2.53;;;;;;;19.79;50.68;101240.59;4901808;28;20508;-71
2022/04/27 06:22:37;;;;;;;3.38;2.72;;;;;;;19.79;50.87;101237.94;4958445;28;20458;-70
2022/04/27 06:25:05;;;;;;;4.93;2.85;;;;;;;19.79;50.60;101237.94;4958943;28;20458;-70
2022/04/27 06:27:33;;;;;;;4.68;2.67;;;;;;;19.80;50.66;101244.16;4975534;28;20415;-71
2022/04/27 06:30:01;;;;;;;4.28;2.70;;;;;;;19.80;50.95;101245.00;4958707;28;20050;-70
2022/04/27 06:32:32;;;;;;;4.28;2.40;;;;;;;19.80;50.84;101253.06;4963094;28;20059;-71
2022/04/27 06:35:04;;;;;;;4.55;2.90;;;;;;;19.79;50.93;101259.41;5014330;28;20050;-70
2022/04/27 06:37:33;;;;;;;4.60;2.38;;;;;;;19.80;50.85;101252.22;5014983;28;20053;-71
2022/04/27 06:40:02;;;;;;;6.78;3.28;;;;;;;19.80;50.86;101252.22;5031076;28;20054;-71
2022/04/27 06:42:30;;;;;;;4.32;3.00;;;;;;;19.80;50.76;101268.31;4998413;28;20054;-71
2022/04/27 06:45:16;;;;;;;3.13;2.42;;;;;;;19.80;50.81;101271.00;5023462;28;20057;-70
2022/04/27 06:48:03;;;;;;;6.57;3.13;;;;;;;19.81;50.92;101270.03;5022483;28;20053;-71
2022/04/27 06:50:53;;;;;;;7.60;3.08;;;;;;;19.80;51.06;101279.91;5015875;28;20061;-70
2022/04/27 06:53:39;;;;;;;4.90;2.75;;;;;;;19.81;51.18;101276.28;5023335;28;20065;-71
2022/04/27 06:56:25;;;;;;;7.10;4.13;;;;;;;19.81;51.12;101275.41;5022976;28;20064;-70
2022/04/27 06:59:01;;;;;;;4.22;2.72;;;;;;;19.81;51.33;101278.09;4999565;28;20050;-71
2022/04/27 07:01:36;;;;;;;6.82;2.95;;;;;;;19.81;51.29;101287.03;5010661;28;20802;-71
2022/04/27 07:04:09;;;;;;;7.60;2.88;;;;;;;19.83;51.62;101289.59;4994554;28;20054;-70
2022/04/27 07:06:39;;;;;;;6.65;2.85;;;;;;;19.84;51.34;101292.13;4994541;28;20503;-71
2022/04/27 07:09:11;;;;;;;4.78;3.10;;;;;;;19.86;51.29;101289.34;4996150;28;20046;-71
2022/04/27 07:11:40;;;;;;;7.93;3.15;;;;;;;19.87;51.39;101293.72;4996054;28;20380;-71
2022/04/27 07:14:08;;;;;;;5.40;2.67;;;;;;;19.88;51.48;101290.91;4994704;28;20058;-71
2022/04/27 07:16:36;;;;;;;5.57;3.00;;;;;;;19.89;51.53;101289.06;4996145;28;20050;-71
2022/04/27 07:19:03;;;;;;;5.80;3.92;;;;;;;19.89;51.62;101295.31;4996013;28;20402;-71
2022/04/27 07:21:31;;;;;;;4.70;3.80;;;;;;;19.89;51.36;101291.75;4996310;28;20053;-71
2022/04/27 07:24:02;;;;;;;5.22;3.20;;;;;;;19.89;51.62;101292.63;4994988;28;20382;-71
2022/04/27 07:26:30;;;;;;;6.53;2.92;;;;;;;19.91;52.08;101297.88;4995827;28;20061;-71
2022/04/27 07:28:57;;;;;;;4.90;3.10;;;;;;;19.92;51.83;101300.44;4996057;28;20043;-71
2022/04/27 07:31:25;;;;;;;7.45;3.58;;;;;;;19.93;51.85;101307.53;4995976;28;20060;-71
2022/04/27 07:33:53;;;;;;;5.65;3.05;;;;;;;19.94;52.33;101306.53;4995442;28;20047;-70
2022/04/27 07:36:20;;;;;;;7.68;4.13;;;;;;;19.96;52.09;101315.31;4995594;28;20058;-71
2022/04/27 07:38:50;;;;;;;6.82;3.53;;;;;;;19.96;52.14;101320.69;4995314;28;20050;-71
2022/04/27 07:41:17;;;;;;;9.32;5.63;;;;;;;19.98;52.04;101320.59;4995311;28;20053;-71
2022/04/27 07:43:44;;;;;;;7.18;5.63;;;;;;;19.98;52.22;101324.13;4995226;28;20054;-71
2022/04/27 07:46:11;;;;;;;6.95;4.90;;;;;;;19.98;52.10;101325.97;4994941;28;20042;-71
2022/04/27 07:48:39;;;;;;;8.13;4.53;;;;;;;19.99;52.44;101328.53;4994928;28;20486;-71
2022/04/27 07:51:06;;;;;;;7.25;4.90;;;;;;;20.01;52.49;101333.75;4995040;28;20046;-71
2022/04/27 07:53:34;;;;;;;8.43;5.90;;;;;;;20.02;52.55;101329.25;4995172;28;20046;-72
2022/04/27 07:56:01;;;;;;;9.48;7.90;;;;;;;20.02;52.49;101331.94;4993493;28;20414;-72
2022/04/27 07:58:29;;;;;;;8.35;6.57;;;;;;;20.01;52.58;101331.06;4995197;28;20482;-71
2022/04/27 08:00:57;;;;;;;8.05;5.43;;;;;;;20.03;52.54;101331.81;4993656;28;20077;-71
2022/04/27 08:03:25;;;;;;;6.30;5.35;;;;;;;20.04;52.42;101329.97;4995236;28;20069;-72
2022/04/27 08:05:52;;;;;;;8.93;5.05;;;;;;;20.05;52.56;101335.22;5011030;28;20390;-72
2022/04/27 08:08:20;;;;;;;8.32;6.32;;;;;;;20.06;52.76;101331.56;5014639;28;20149;-71
2022/04/27 08:10:54;;;;;;;9.50;7.38;;;;;;;20.07;52.66;101335.13;5014450;28;20053;-71
2022/04/27 08:13:21;;;;;;;7.20;5.97;;;;;;;20.06;52.55;101339.63;5013751;28;20050;-71
2022/04/27 08:15:49;;;;;;;9.38;6.95;;;;;;;20.06;52.53;101342.31;5012933;28;20060;-72
2022/04/27 08:18:17;;;;;;;8.88;6.38;;;;;;;20.07;52.45;101335.97;5014426;28;20406;-71
2022/04/27 08:23:34;;;;;;;9.65;6.72;;;;;;;20.08;52.52;101343.03;5014097;28;20062;-70
2022/04/27 08:26:04;;;;;;;13.88;8.95;;;;;;;20.09;52.08;101344.75;5014549;28;20056;-70
2022/04/27 08:28:32;;;;;;;8.15;6.03;;;;;;;20.09;52.48;101344.75;5012824;28;20042;-70
2022/04/27 08:31:00;;;;;;;11.60;6.15;;;;;;;20.11;52.46;101347.31;5014056;28;20050;-72
2022/04/27 08:33:28;;;;;;;9.05;6.47;;;;;;;20.12;52.48;101352.56;5012854;28;20050;-70
2022/04/27 08:35:57;;;;;;;8.65;6.22;;;;;;;20.14;52.66;101352.47;5014222;28;20046;-70
2022/04/27 08:38:45;;;;;;;8.65;5.10;;;;;;;20.15;52.58;101355.00;5014225;28;20096;-69
2022/04/27 08:41:12;;;;;;;8.38;5.10;;;;;;;20.17;52.67;101366.47;5012534;28;20054;-71
2022/04/27 08:43:40;;;;;;;6.85;4.38;;;;;;;20.17;52.69;101353.03;5012997;28;20046;-72
2022/04/27 08:46:08;;;;;;;8.05;5.25;;;;;;;20.18;52.55;101354.78;5013594;28;20060;-71
2022/04/27 08:48:36;;;;;;;7.43;4.90;;;;;;;20.19;52.68;101358.31;5012655;28;20045;-71
2022/04/27 08:51:05;;;;;;;7.03;4.95;;;;;;;20.20;52.70;101355.47;5013944;28;20053;-72
2022/04/27 08:53:33;;;;;;;5.97;4.32;;;;;;;20.22;52.61;101361.59;5012304;28;20050;-71
2022/04/27 08:56:01;;;;;;;6.40;4.93;;;;;;;20.23;52.88;101365.16;5013469;28;20406;-71
2022/04/27 08:58:28;;;;;;;8.43;5.53;;;;;;;20.24;52.78;101366.84;5013963;28;20486;-72
2022/04/27 09:01:12;;;;;;;7.43;5.88;;;;;;;20.24;53.04;101362.31;5013340;28;20057;-71
2022/04/27 09:03:41;;;;;;;9.52;5.57;;;;;;;20.25;52.81;101371.22;5013597;28;20046;-69
2022/04/27 09:06:12;;;;;;;12.07;5.63;;;;;;;20.25;52.91;101366.75;5012977;28;20046;-70
2022/04/27 09:08:40;;;;;;;8.00;5.57;;;;;;;20.25;52.74;101372.13;5011994;28;20062;-71
2022/04/27 09:11:28;;;;;;;7.65;5.85;;;;;;;20.25;52.88;101366.75;4995823;28;20050;-70
2022/04/27 09:13:59;;;;;;;6.78;5.68;;;;;;;20.26;52.91;101362.22;4992920;28;20077;-70
2022/04/27 09:22:27;;;;;;;7.70;6.03;;;;;;;20.28;52.75;101370.16;4994648;28;20061;-71
2022/04/27 09:24:57;;;;;;;10.20;5.47;;;;;;;20.28;52.99;101375.53;4992535;28;20402;-71
2022/04/27 09:27:25;;;;;;;6.20;5.60;;;;;;;20.28;52.93;101365.63;4993456;28;20054;-72
2022/04/27 09:29:58;;;;;;;7.15;5.43;;;;;;;20.28;52.86;101364.75;4993297;28;20050;-71
2022/04/27 09:32:26;;;;;;;7.10;4.90;;;;;;;20.28;53.09;101362.94;4993934;28;20057;-71
2022/04/27 09:34:55;;;;;;;5.60;4.80;;;;;;;20.30;52.90;101370.88;4994082;28;20291;-72
2022/04/27 09:37:30;;;;;;;9.02;6.72;;;;;;;20.29;52.98;101370.00;4994013;28;20050;-71
2022/04/27 09:40:07;;;;;;;7.72;6.93;;;;;;;20.31;53.04;101369.91;4993622;28;20042;-71
2022/04/27 09:42:37;;;;;;;8.38;6.07;;;;;;;20.30;52.94;101368.19;4992669;28;20050;-72
2022/04/27 09:45:16;;;;;;;8.43;5.68;;;;;;;20.30;52.93;101369.06;4992284;28;20050;-71
2022/04/27 09:48:05;;;;;;;6.25;5.22;;;;;;;20.30;52.96;101374.44;4993544;28;20050;-72
2022/04/27 09:50:55;;;;;;;6.10;5.30;;;;;;;20.31;53.04;101378.81;4993576;28;20470;-71
2022/04/27 09:53:22;;;;;;;6.93;4.72;;;;;;;20.32;52.94;101377.84;4993843;28;20053;-71
2022/04/27 09:55:52;;;;;;;8.60;5.60;;;;;;;20.32;53.08;101382.34;4994700;28;20118;-71
2022/04/27 09:58:21;;;;;;;8.98;5.20;;;;;;;20.32;52.99;101374.28;4997054;28;20054;-72
2022/04/27 10:00:48;;;;;;;9.05;5.07;;;;;;;20.32;52.93;101374.28;4997293;28;20046;-71
2022/04/27 10:03:20;;;;;;;6.55;4.72;;;;;;;20.33;52.90;101378.69;4998355;28;20505;-71
2022/04/27 10:05:48;;;;;;;8.95;4.70;;;;;;;20.32;53.33;101372.44;5016227;28;20045;-70
2022/04/27 10:08:15;;;;;;;6.45;4.63;;;;;;;20.33;53.27;101368.78;5015889;28;20097;-71
2022/04/27 10:10:45;;;;;;;6.75;5.50;;;;;;;20.34;53.08;101358.91;5015383;28;20467;-71
2022/04/27 10:13:14;;;;;;;6.32;5.25;;;;;;;20.33;53.40;101373.31;5016424;28;20105;-71
2022/04/27 10:15:43;;;;;;;6.85;4.97;;;;;;;20.32;53.26;101360.84;5016052;28;20050;-71
2022/04/27 10:18:15;;;;;;;5.85;5.00;;;;;;;20.32;53.13;101366.22;5016573;28;20401;-71
2022/04/27 10:20:44;;;;;;;7.43;5.75;;;;;;;20.32;53.10;101371.59;5031789;28;20045;-71
2022/04/27 10:23:24;;;;;;;6.57;5.35;;;;;;;20.30;53.16;101363.66;5015910;28;20060;-70
2022/04/27 10:26:18;;;;;;;6.70;5.53;;;;;;;20.30;53.21;101368.19;5016567;28;20057;-71
2022/04/27 10:28:50;;;;;;;8.75;5.72;;;;;;;20.30;53.22;101366.38;5016605;28;20057;-71
2022/04/27 10:31:43;;;;;;;6.07;5.47;;;;;;;20.30;53.19;101368.19;5016194;28;20433;-71
2022/04/27 10:34:17;;;;;;;7.43;5.88;;;;;;;20.29;53.15;101371.84;5015120;28;20050;-71
2022/04/27 10:36:47;;;;;;;8.00;5.53;;;;;;;20.30;53.09;101368.19;5016271;28;20401;-71
2022/04/27 10:39:17;;;;;;;8.38;5.53;;;;;;;20.28;53.17;101365.63;5014696;28;20506;-71
2022/04/27 10:41:58;;;;;;;6.93;5.30;;;;;;;20.29;53.36;101366.47;5014723;28;20077;-71
2022/04/27 10:44:58;;;;;;;6.65;5.32;;;;;;;20.29;53.17;101374.53;5016255;28;20042;-71
2022/04/27 10:47:34;;;;;;;6.65;5.30;;;;;;;20.29;53.23;101371.84;5015341;28;20033;-71
2022/04/27 10:50:12;;;;;;;5.90;5.30;;;;;;;20.30;53.15;101368.19;5015921;28;20398;-71
2022/04/27 10:52:44;;;;;;;6.20;5.60;;;;;;;20.28;53.01;101367.44;5014440;28;20053;-72
2022/04/27 10:55:40;;;;;;;7.70;5.27;;;;;;;20.28;53.03;101368.31;5014539;28;20049;-71
2022/04/27 10:58:28;;;;;;;6.13;5.43;;;;;;;20.29;53.15;101361.94;5014448;28;20042;-71
2022/04/27 11:00:58;;;;;;;6.32;5.38;;;;;;;20.28;53.19;101362.94;5015861;28;20038;-71
2022/04/27 11:03:26;;;;;;;6.60;5.40;;;;;;;20.29;53.00;101366.47;5015617;28;20128;-71
2022/04/27 11:05:57;;;;;;;8.18;6.25;;;;;;;20.29;52.97;101358.41;5015231;28;20050;-71
2022/04/27 11:08:59;;;;;;;10.82;5.90;;;;;;;20.30;52.86;101354.75;4998039;28;20390;-71
2022/04/27 11:11:28;;;;;;;5.93;4.97;;;;;;;20.30;52.97;101360.13;5033062;28;20058;-71
2022/04/27 11:14:04;;;;;;;5.28;4.40;;;;;;;20.30;52.97;101354.75;5032628;28;20072;-71
2022/04/27 11:16:42;;;;;;;5.40;4.63;;;;;;;20.31;52.75;101364.53;5033343;28;20058;-71
2022/04/27 11:19:10;;;;;;;8.60;6.70;;;;;;;20.31;53.03;101361.84;5016001;28;20058;-71
2022/04/27 11:21:37;;;;;;;6.88;6.18;;;;;;;20.31;53.08;101367.22;5032857;28;20072;-71
2022/04/27 11:24:07;;;;;;;6.85;5.90;;;;;;;20.31;52.96;101365.38;5016524;28;20073;-71
2022/04/27 11:26:46;;;;;;;5.88;4.82;;;;;;;20.31;52.94;101364.53;5033096;28;20493;-71
2022/04/27 11:29:15;;;;;;;6.90;5.38;;;;;;;20.32;52.97;101360.84;5032942;28;20061;-71
2022/04/27 11:31:43;;;;;;;6.25;4.35;;;;;;;20.30;52.83;101366.38;5032678;28;20049;-71
2022/04/27 11:34:27;;;;;;;5.22;4.63;;;;;;;20.31;52.83;101360.00;5032958;28;20060;-71
2022/04/27 11:37:37;;;;;;;5.45;4.15;;;;;;;20.31;53.04;101359.16;5032654;28;20053;-71
2022/04/27 11:40:15;;;;;;;7.38;5.22;;;;;;;20.30;52.62;101366.38;4992551;28;20417;-71
2022/04/27 11:42:48;;;;;;;13.63;9.80;;;;;;;20.31;54.10;101362.69;5033055;28;20068;-71
2022/04/27 11:45:23;;;;;;;13.57;10.77;;;;;;;20.31;54.57;101364.53;5015245;28;20452;-70
2022/04/27 11:48:05;;;;;;;16.10;10.18;;;;;;;20.30;53.89;101362.81;5013008;28;20073;-71
2022/04/27 11:50:34;;;;;;;13.50;9.65;;;;;;;20.30;53.69;101368.19;5014996;28;20042;-71
2022/04/27 11:53:07;;;;;;;15.50;10.80;;;;;;;20.29;53.15;101359.25;5011127;28;20390;-71
2022/04/27 11:55:36;;;;;;;10.27;9.15;;;;;;;20.29;53.49;101358.41;5010520;28;20038;-72
2022/04/27 11:58:05;;;;;;;10.02;7.63;;;;;;;20.29;53.54;101355.72;5014075;28;20050;-71
2022/04/27 12:00:34;;;;;;;11.65;7.43;;;;;;;20.30;53.54;101354.75;5013740;28;20045;-71
2022/04/27 12:03:04;;;;;;;11.43;8.32;;;;;;;20.31;53.37;101359.16;5014342;28;20390;-71
2022/04/27 12:05:38;;;;;;;10.25;7.20;;;;;;;20.29;53.35;101359.25;5014730;28;20057;-71
2022/04/27 12:08:11;;;;;;;10.73;7.55;;;;;;;20.30;53.47;101360.97;5013855;28;20049;-71
2022/04/27 12:10:42;;;;;;;9.20;6.78;;;;;;;20.30;53.43;101360.13;5014295;28;20050;-71
2022/04/27 12:13:11;;;;;;;10.05;7.07;;;;;;;20.32;53.28;101360.84;5013961;28;20046;-71